sensor_id;sensor_type;location;lat;lon;timestamp;temperature;humidity
68439;SHT31;55421;51.600;5.718;2023-05-29T00:01:53;14.92;67.87
68439;SHT31;55421;51.600;5.718;2023-05-29T00:04:20;14.85;67.91
68439;SHT31;55421;51.600;5.718;2023-05-29T00:06:47;14.79;67.96
68439;SHT31;55421;51.600;5.718;2023-05-29T00:09:14;14.71;67.94
68439;SHT31;55421;51.600;5.718;2023-05-29T00:11:41;14.63;67.97
68439;SHT31;55421;51.600;5.718;2023-05-29T00:14:08;14.58;68.08
68439;SHT31;55421;51.600;5.718;2023-05-29T00:16:39;14.54;68.10
68439;SHT31;55421;51.600;5.718;2023-05-29T00:19:06;14.51;68.05
68439;SHT31;55421;51.600;5.718;2023-05-29T00:21:32;14.45;67.93
68439;SHT31;55421;51.600;5.718;2023-05-29T00:23:59;14.34;67.80
68439;SHT31;55421;51.600;5.718;2023-05-29T00:26:25;14.26;67.80
68439;SHT31;55421;51.600;5.718;2023-05-29T00:28:52;14.20;67.79
68439;SHT31;55421;51.600;5.718;2023-05-29T00:31:18;14.14;67.67
68439;SHT31;55421;51.600;5.718;2023-05-29T00:33:45;14.11;67.64
68439;SHT31;55421;51.600;5.718;2023-05-29T00:36:11;14.10;67.52
68439;SHT31;55421;51.600;5.718;2023-05-29T00:38:38;14.07;67.36
68439;SHT31;55421;51.600;5.718;2023-05-29T00:41:04;14.03;67.20
68439;SHT31;55421;51.600;5.718;2023-05-29T00:43:31;14.02;67.07
68439;SHT31;55421;51.600;5.718;2023-05-29T00:45:57;13.98;66.79
68439;SHT31;55421;51.600;5.718;2023-05-29T00:48:25;13.90;66.46
68439;SHT31;55421;51.600;5.718;2023-05-29T00:50:52;13.82;66.27
68439;SHT31;55421;51.600;5.718;2023-05-29T00:53:19;13.75;66.06
68439;SHT31;55421;51.600;5.718;2023-05-29T00:55:46;13.68;65.97
68439;SHT31;55421;51.600;5.718;2023-05-29T00:58:13;13.66;66.00
68439;SHT31;55421;51.600;5.718;2023-05-29T01:00:39;13.65;65.97
68439;SHT31;55421;51.600;5.718;2023-05-29T01:03:06;13.64;65.86
68439;SHT31;55421;51.600;5.718;2023-05-29T01:05:34;13.62;65.70
68439;SHT31;55421;51.600;5.718;2023-05-29T01:08:04;13.59;65.62
68439;SHT31;55421;51.600;5.718;2023-05-29T01:10:31;13.54;65.60
68439;SHT31;55421;51.600;5.718;2023-05-29T01:13:06;13.49;65.54
68439;SHT31;55421;51.600;5.718;2023-05-29T01:15:47;13.42;65.60
68439;SHT31;55421;51.600;5.718;2023-05-29T01:25:19;13.27;65.95
68439;SHT31;55421;51.600;5.718;2023-05-29T01:27:57;13.24;66.00
68439;SHT31;55421;51.600;5.718;2023-05-29T01:30:31;13.19;66.03
68439;SHT31;55421;51.600;5.718;2023-05-29T01:32:59;13.15;66.13
68439;SHT31;55421;51.600;5.718;2023-05-29T01:35:26;13.10;66.21
68439;SHT31;55421;51.600;5.718;2023-05-29T01:37:52;13.05;66.32
68439;SHT31;55421;51.600;5.718;2023-05-29T01:40:19;13.03;66.40
68439;SHT31;55421;51.600;5.718;2023-05-29T01:42:45;13.02;66.51
68439;SHT31;55421;51.600;5.718;2023-05-29T01:45:12;13.04;66.59
68439;SHT31;55421;51.600;5.718;2023-05-29T01:47:40;13.01;66.60
68439;SHT31;55421;51.600;5.718;2023-05-29T01:50:06;12.97;66.69
68439;SHT31;55421;51.600;5.718;2023-05-29T01:52:36;12.96;66.70
68439;SHT31;55421;51.600;5.718;2023-05-29T01:55:02;12.91;66.72
68439;SHT31;55421;51.600;5.718;2023-05-29T01:57:29;12.85;66.82
68439;SHT31;55421;51.600;5.718;2023-05-29T01:59:56;12.82;66.99
68439;SHT31;55421;51.600;5.718;2023-05-29T02:02:23;12.84;67.10
68439;SHT31;55421;51.600;5.718;2023-05-29T02:04:49;12.86;67.09
68439;SHT31;55421;51.600;5.718;2023-05-29T02:07:18;12.86;67.07
68439;SHT31;55421;51.600;5.718;2023-05-29T02:09:45;12.80;67.06
68439;SHT31;55421;51.600;5.718;2023-05-29T02:12:12;12.75;67.10
68439;SHT31;55421;51.600;5.718;2023-05-29T02:14:39;12.71;67.20
68439;SHT31;55421;51.600;5.718;2023-05-29T02:17:06;12.68;67.32
68439;SHT31;55421;51.600;5.718;2023-05-29T02:19:33;12.65;67.37
68439;SHT31;55421;51.600;5.718;2023-05-29T02:21:59;12.61;67.42
68439;SHT31;55421;51.600;5.718;2023-05-29T02:24:26;12.60;67.54
68439;SHT31;55421;51.600;5.718;2023-05-29T02:26:52;12.57;67.59
68439;SHT31;55421;51.600;5.718;2023-05-29T02:29:19;12.54;67.66
68439;SHT31;55421;51.600;5.718;2023-05-29T02:31:45;12.48;67.73
68439;SHT31;55421;51.600;5.718;2023-05-29T02:34:12;12.44;67.85
68439;SHT31;55421;51.600;5.718;2023-05-29T02:36:38;12.44;68.02
68439;SHT31;55421;51.600;5.718;2023-05-29T02:39:06;12.41;68.23
68439;SHT31;55421;51.600;5.718;2023-05-29T02:41:32;12.38;68.39
68439;SHT31;55421;51.600;5.718;2023-05-29T02:43:59;12.35;68.52
68439;SHT31;55421;51.600;5.718;2023-05-29T02:46:25;12.33;68.63
68439;SHT31;55421;51.600;5.718;2023-05-29T02:48:52;12.26;68.77
68439;SHT31;55421;51.600;5.718;2023-05-29T02:51:18;12.18;68.99
68439;SHT31;55421;51.600;5.718;2023-05-29T02:53:45;12.13;69.17
68439;SHT31;55421;51.600;5.718;2023-05-29T02:56:11;12.14;69.28
68439;SHT31;55421;51.600;5.718;2023-05-29T02:58:38;12.13;69.36
68439;SHT31;55421;51.600;5.718;2023-05-29T03:01:04;12.10;69.40
68439;SHT31;55421;51.600;5.718;2023-05-29T03:03:31;12.08;69.48
68439;SHT31;55421;51.600;5.718;2023-05-29T03:05:58;12.07;69.59
68439;SHT31;55421;51.600;5.718;2023-05-29T03:08:24;12.09;69.61
68439;SHT31;55421;51.600;5.718;2023-05-29T03:10:52;12.10;69.68
68439;SHT31;55421;51.600;5.718;2023-05-29T03:13:18;12.11;69.70
68439;SHT31;55421;51.600;5.718;2023-05-29T03:15:45;12.08;69.72
68439;SHT31;55421;51.600;5.718;2023-05-29T03:18:11;12.04;69.80
68439;SHT31;55421;51.600;5.718;2023-05-29T03:20:38;11.99;69.90
68439;SHT31;55421;51.600;5.718;2023-05-29T03:23:04;11.96;70.01
68439;SHT31;55421;51.600;5.718;2023-05-29T03:25:32;11.95;70.15
68439;SHT31;55421;51.600;5.718;2023-05-29T03:27:58;11.96;70.21
68439;SHT31;55421;51.600;5.718;2023-05-29T03:30:24;11.96;70.19
68439;SHT31;55421;51.600;5.718;2023-05-29T03:32:51;11.97;70.20
68439;SHT31;55421;51.600;5.718;2023-05-29T03:35:17;11.96;70.18
68439;SHT31;55421;51.600;5.718;2023-05-29T03:37:44;11.94;70.20
68439;SHT31;55421;51.600;5.718;2023-05-29T03:40:11;11.93;70.20
68439;SHT31;55421;51.600;5.718;2023-05-29T03:42:39;11.89;70.25
68439;SHT31;55421;51.600;5.718;2023-05-29T03:45:05;11.89;70.30
68439;SHT31;55421;51.600;5.718;2023-05-29T03:47:32;11.89;70.30
68439;SHT31;55421;51.600;5.718;2023-05-29T03:49:59;11.89;70.31
68439;SHT31;55421;51.600;5.718;2023-05-29T03:52:25;11.87;70.27
68439;SHT31;55421;51.600;5.718;2023-05-29T03:54:52;11.86;70.20
68439;SHT31;55421;51.600;5.718;2023-05-29T03:57:18;11.89;70.20
68439;SHT31;55421;51.600;5.718;2023-05-29T03:59:45;11.93;70.18
68439;SHT31;55421;51.600;5.718;2023-05-29T04:02:11;11.96;70.03
68439;SHT31;55421;51.600;5.718;2023-05-29T04:04:38;11.99;69.96
68439;SHT31;55421;51.600;5.718;2023-05-29T04:07:05;12.01;69.82
68439;SHT31;55421;51.600;5.718;2023-05-29T04:09:33;12.05;69.78
68439;SHT31;55421;51.600;5.718;2023-05-29T04:11:59;12.13;69.67
68439;SHT31;55421;51.600;5.718;2023-05-29T04:14:28;12.29;69.52
68439;SHT31;55421;51.600;5.718;2023-05-29T04:16:55;12.48;69.27
68439;SHT31;55421;51.600;5.718;2023-05-29T04:19:21;12.67;68.86
68439;SHT31;55421;51.600;5.718;2023-05-29T04:21:48;12.81;68.43
68439;SHT31;55421;51.600;5.718;2023-05-29T04:24:14;12.90;68.11
68439;SHT31;55421;51.600;5.718;2023-05-29T04:26:41;12.98;67.85
68439;SHT31;55421;51.600;5.718;2023-05-29T04:29:08;13.08;67.60
68439;SHT31;55421;51.600;5.718;2023-05-29T04:31:34;13.18;67.36
68439;SHT31;55421;51.600;5.718;2023-05-29T04:34:04;13.29;67.14
68439;SHT31;55421;51.600;5.718;2023-05-29T04:36:30;13.39;66.89
68439;SHT31;55421;51.600;5.718;2023-05-29T04:38:58;13.47;66.64
68439;SHT31;55421;51.600;5.718;2023-05-29T04:41:25;13.58;66.39
68439;SHT31;55421;51.600;5.718;2023-05-29T04:43:57;13.59;66.08
68439;SHT31;55421;51.600;5.718;2023-05-29T04:46:24;13.52;65.97
68439;SHT31;55421;51.600;5.718;2023-05-29T04:48:51;13.41;66.19
68439;SHT31;55421;51.600;5.718;2023-05-29T04:51:22;13.32;66.38
68439;SHT31;55421;51.600;5.718;2023-05-29T04:53:50;13.25;66.48
68439;SHT31;55421;51.600;5.718;2023-05-29T04:56:17;13.19;66.51
68439;SHT31;55421;51.600;5.718;2023-05-29T04:58:44;13.11;66.58
68439;SHT31;55421;51.600;5.718;2023-05-29T05:01:11;13.08;66.73
68439;SHT31;55421;51.600;5.718;2023-05-29T05:03:40;13.10;66.73
68439;SHT31;55421;51.600;5.718;2023-05-29T05:06:07;13.13;66.71
68439;SHT31;55421;51.600;5.718;2023-05-29T05:08:34;13.17;66.72
68439;SHT31;55421;51.600;5.718;2023-05-29T05:11:01;13.20;66.64
68439;SHT31;55421;51.600;5.718;2023-05-29T05:13:28;13.24;66.51
68439;SHT31;55421;51.600;5.718;2023-05-29T05:15:55;13.25;66.50
68439;SHT31;55421;51.600;5.718;2023-05-29T05:18:21;13.29;66.50
68439;SHT31;55421;51.600;5.718;2023-05-29T05:20:48;13.32;66.42
68439;SHT31;55421;51.600;5.718;2023-05-29T05:23:14;13.37;66.40
68439;SHT31;55421;51.600;5.718;2023-05-29T05:25:41;13.41;66.30
68439;SHT31;55421;51.600;5.718;2023-05-29T05:28:08;13.44;66.22
68439;SHT31;55421;51.600;5.718;2023-05-29T05:30:35;13.47;66.13
68439;SHT31;55421;51.600;5.718;2023-05-29T05:33:02;13.50;65.99
68439;SHT31;55421;51.600;5.718;2023-05-29T05:35:28;13.51;65.92
68439;SHT31;55421;51.600;5.718;2023-05-29T05:37:55;13.54;65.88
68439;SHT31;55421;51.600;5.718;2023-05-29T05:40:27;13.59;65.82
68439;SHT31;55421;51.600;5.718;2023-05-29T05:42:53;13.65;65.66
68439;SHT31;55421;51.600;5.718;2023-05-29T05:45:20;13.61;65.31
68439;SHT31;55421;51.600;5.718;2023-05-29T05:47:46;13.57;65.28
68439;SHT31;55421;51.600;5.718;2023-05-29T05:50:13;13.57;65.30
68439;SHT31;55421;51.600;5.718;2023-05-29T05:52:40;13.55;65.21
68439;SHT31;55421;51.600;5.718;2023-05-29T05:55:07;13.53;65.21
68439;SHT31;55421;51.600;5.718;2023-05-29T05:57:35;13.55;65.20
68439;SHT31;55421;51.600;5.718;2023-05-29T06:00:02;13.58;65.10
68439;SHT31;55421;51.600;5.718;2023-05-29T06:02:38;13.63;64.99
68439;SHT31;55421;51.600;5.718;2023-05-29T06:05:08;13.69;64.90
68439;SHT31;55421;51.600;5.718;2023-05-29T06:07:35;13.72;64.58
68439;SHT31;55421;51.600;5.718;2023-05-29T06:10:03;13.76;64.49
68439;SHT31;55421;51.600;5.718;2023-05-29T06:12:30;13.79;64.39
68439;SHT31;55421;51.600;5.718;2023-05-29T06:14:57;13.84;64.26
68439;SHT31;55421;51.600;5.718;2023-05-29T06:17:23;13.90;64.11
68439;SHT31;55421;51.600;5.718;2023-05-29T06:19:50;13.99;64.17
68439;SHT31;55421;51.600;5.718;2023-05-29T06:22:17;14.10;64.09
68439;SHT31;55421;51.600;5.718;2023-05-29T06:24:44;14.18;63.78
68439;SHT31;55421;51.600;5.718;2023-05-29T06:27:11;14.17;63.23
68439;SHT31;55421;51.600;5.718;2023-05-29T06:29:37;14.16;62.90
68439;SHT31;55421;51.600;5.718;2023-05-29T06:32:04;14.15;62.84
68439;SHT31;55421;51.600;5.718;2023-05-29T06:34:31;14.19;62.77
68439;SHT31;55421;51.600;5.718;2023-05-29T06:36:58;14.24;62.75
68439;SHT31;55421;51.600;5.718;2023-05-29T06:39:24;14.30;62.61
68439;SHT31;55421;51.600;5.718;2023-05-29T06:41:51;14.36;62.68
68439;SHT31;55421;51.600;5.718;2023-05-29T06:44:18;14.42;62.36
68439;SHT31;55421;51.600;5.718;2023-05-29T06:46:44;14.44;62.20
68439;SHT31;55421;51.600;5.718;2023-05-29T06:49:11;14.47;62.09
68439;SHT31;55421;51.600;5.718;2023-05-29T06:51:37;14.48;61.98
68439;SHT31;55421;51.600;5.718;2023-05-29T06:54:03;14.49;61.87
68439;SHT31;55421;51.600;5.718;2023-05-29T06:56:30;14.51;61.82
68439;SHT31;55421;51.600;5.718;2023-05-29T06:58:57;14.59;61.60
68439;SHT31;55421;51.600;5.718;2023-05-29T07:01:24;14.67;61.41
68439;SHT31;55421;51.600;5.718;2023-05-29T07:03:51;14.73;61.34
68439;SHT31;55421;51.600;5.718;2023-05-29T07:06:19;14.80;61.22
68439;SHT31;55421;51.600;5.718;2023-05-29T07:08:46;14.86;61.09
68439;SHT31;55421;51.600;5.718;2023-05-29T07:11:12;14.94;60.96
68439;SHT31;55421;51.600;5.718;2023-05-29T07:13:39;15.02;60.82
68439;SHT31;55421;51.600;5.718;2023-05-29T07:16:05;15.08;60.28
68439;SHT31;55421;51.600;5.718;2023-05-29T07:18:32;15.14;60.02
68439;SHT31;55421;51.600;5.718;2023-05-29T07:20:59;15.21;59.92
68439;SHT31;55421;51.600;5.718;2023-05-29T07:23:26;15.28;59.89
68439;SHT31;55421;51.600;5.718;2023-05-29T07:25:53;15.38;60.00
68439;SHT31;55421;51.600;5.718;2023-05-29T07:28:19;15.51;59.87
68439;SHT31;55421;51.600;5.718;2023-05-29T07:30:46;15.58;59.26
68439;SHT31;55421;51.600;5.718;2023-05-29T07:33:12;15.65;58.81
68439;SHT31;55421;51.600;5.718;2023-05-29T07:35:39;15.71;58.57
68439;SHT31;55421;51.600;5.718;2023-05-29T07:38:06;15.77;58.52
68439;SHT31;55421;51.600;5.718;2023-05-29T07:40:32;15.82;58.19
68439;SHT31;55421;51.600;5.718;2023-05-29T07:42:59;15.86;57.91
68439;SHT31;55421;51.600;5.718;2023-05-29T07:45:26;15.85;57.87
68439;SHT31;55421;51.600;5.718;2023-05-29T07:47:53;15.92;57.79
68439;SHT31;55421;51.600;5.718;2023-05-29T07:50:19;16.01;57.48
68439;SHT31;55421;51.600;5.718;2023-05-29T07:52:46;16.09;57.12
68439;SHT31;55421;51.600;5.718;2023-05-29T07:55:12;16.19;57.17
68439;SHT31;55421;51.600;5.718;2023-05-29T07:57:39;16.26;56.90
68439;SHT31;55421;51.600;5.718;2023-05-29T08:00:08;16.32;56.99
68439;SHT31;55421;51.600;5.718;2023-05-29T08:02:39;16.33;56.70
68439;SHT31;55421;51.600;5.718;2023-05-29T08:05:07;16.34;56.64
68439;SHT31;55421;51.600;5.718;2023-05-29T08:07:36;16.37;56.66
68439;SHT31;55421;51.600;5.718;2023-05-29T08:10:03;16.39;56.29
68439;SHT31;55421;51.600;5.718;2023-05-29T08:12:31;16.36;56.23
68439;SHT31;55421;51.600;5.718;2023-05-29T08:14:58;16.39;55.94
68439;SHT31;55421;51.600;5.718;2023-05-29T08:17:24;16.42;56.13
68439;SHT31;55421;51.600;5.718;2023-05-29T08:19:51;16.47;56.00
68439;SHT31;55421;51.600;5.718;2023-05-29T08:22:18;16.49;55.89
68439;SHT31;55421;51.600;5.718;2023-05-29T08:24:44;16.54;55.83
68439;SHT31;55421;51.600;5.718;2023-05-29T08:27:11;16.61;55.63
68439;SHT31;55421;51.600;5.718;2023-05-29T08:29:37;16.69;55.34
68439;SHT31;55421;51.600;5.718;2023-05-29T08:32:04;16.71;54.81
68439;SHT31;55421;51.600;5.718;2023-05-29T08:34:31;16.75;55.06
68439;SHT31;55421;51.600;5.718;2023-05-29T08:36:58;16.76;54.83
68439;SHT31;55421;51.600;5.718;2023-05-29T08:39:24;16.76;54.57
68439;SHT31;55421;51.600;5.718;2023-05-29T08:41:52;16.80;54.57
68439;SHT31;55421;51.600;5.718;2023-05-29T08:44:30;16.87;54.04
68439;SHT31;55421;51.600;5.718;2023-05-29T08:47:03;16.93;53.77
68439;SHT31;55421;51.600;5.718;2023-05-29T08:49:39;17.05;53.55
68439;SHT31;55421;51.600;5.718;2023-05-29T08:52:09;17.18;53.50
68439;SHT31;55421;51.600;5.718;2023-05-29T08:54:42;17.36;53.49
68439;SHT31;55421;51.600;5.718;2023-05-29T08:57:10;17.54;53.49
68439;SHT31;55421;51.600;5.718;2023-05-29T08:59:39;17.68;52.90
68439;SHT31;55421;51.600;5.718;2023-05-29T09:02:09;17.73;52.85
68439;SHT31;55421;51.600;5.718;2023-05-29T09:04:37;17.82;52.76
68439;SHT31;55421;51.600;5.718;2023-05-29T09:07:07;17.86;52.31
68439;SHT31;55421;51.600;5.718;2023-05-29T09:09:34;17.88;51.97
68439;SHT31;55421;51.600;5.718;2023-05-29T09:12:02;17.94;51.99
68439;SHT31;55421;51.600;5.718;2023-05-29T09:17:00;17.99;51.06
68439;SHT31;55421;51.600;5.718;2023-05-29T09:19:26;17.98;51.20
68439;SHT31;55421;51.600;5.718;2023-05-29T09:22:01;18.00;51.35
68439;SHT31;55421;51.600;5.718;2023-05-29T09:24:32;18.02;51.19
68439;SHT31;55421;51.600;5.718;2023-05-29T09:27:00;18.11;51.38
68439;SHT31;55421;51.600;5.718;2023-05-29T09:29:28;18.16;51.02
68439;SHT31;55421;51.600;5.718;2023-05-29T09:31:59;18.17;50.68
68439;SHT31;55421;51.600;5.718;2023-05-29T09:34:27;18.17;50.97
68439;SHT31;55421;51.600;5.718;2023-05-29T09:37:04;18.22;50.54
68439;SHT31;55421;51.600;5.718;2023-05-29T09:39:44;18.22;50.55
68439;SHT31;55421;51.600;5.718;2023-05-29T09:42:13;18.36;50.77
68439;SHT31;55421;51.600;5.718;2023-05-29T09:44:42;18.52;50.83
68439;SHT31;55421;51.600;5.718;2023-05-29T09:47:18;18.72;50.75
68439;SHT31;55421;51.600;5.718;2023-05-29T09:49:46;18.86;50.42
68439;SHT31;55421;51.600;5.718;2023-05-29T09:52:13;18.84;49.57
68439;SHT31;55421;51.600;5.718;2023-05-29T09:54:44;18.78;49.94
68439;SHT31;55421;51.600;5.718;2023-05-29T09:57:14;18.79;50.05
68439;SHT31;55421;51.600;5.718;2023-05-29T09:59:43;18.86;50.04
68439;SHT31;55421;51.600;5.718;2023-05-29T10:02:19;18.96;50.30
68439;SHT31;55421;51.600;5.718;2023-05-29T10:04:47;18.98;49.25
68439;SHT31;55421;51.600;5.718;2023-05-29T10:07:17;18.96;49.53
68439;SHT31;55421;51.600;5.718;2023-05-29T10:10:00;19.05;49.18
68439;SHT31;55421;51.600;5.718;2023-05-29T10:12:49;19.00;48.95
68439;SHT31;55421;51.600;5.718;2023-05-29T10:15:16;19.08;49.29
68439;SHT31;55421;51.600;5.718;2023-05-29T10:20:38;19.28;48.91
68439;SHT31;55421;51.600;5.718;2023-05-29T10:23:09;19.40;48.93
68439;SHT31;55421;51.600;5.718;2023-05-29T10:25:38;19.50;48.45
68439;SHT31;55421;51.600;5.718;2023-05-29T10:28:11;19.55;48.42
68439;SHT31;55421;51.600;5.718;2023-05-29T10:30:41;19.59;47.98
68439;SHT31;55421;51.600;5.718;2023-05-29T10:33:30;19.67;48.15
68439;SHT31;55421;51.600;5.718;2023-05-29T10:36:21;19.79;47.65
68439;SHT31;55421;51.600;5.718;2023-05-29T10:38:52;19.80;47.04
68439;SHT31;55421;51.600;5.718;2023-05-29T10:46:25;19.68;46.38
68439;SHT31;55421;51.600;5.718;2023-05-29T10:49:28;19.69;46.96
68439;SHT31;55421;51.600;5.718;2023-05-29T10:51:56;19.75;46.87
68439;SHT31;55421;51.600;5.718;2023-05-29T10:54:25;19.83;46.37
68439;SHT31;55421;51.600;5.718;2023-05-29T10:56:56;19.82;46.30
68439;SHT31;55421;51.600;5.718;2023-05-29T10:59:27;19.85;46.58
68439;SHT31;55421;51.600;5.718;2023-05-29T11:01:54;19.92;46.56
68439;SHT31;55421;51.600;5.718;2023-05-29T11:06:53;20.07;46.01
68439;SHT31;55421;51.600;5.718;2023-05-29T11:09:30;20.09;46.11
68439;SHT31;55421;51.600;5.718;2023-05-29T11:12:22;20.17;46.09
68439;SHT31;55421;51.600;5.718;2023-05-29T11:15:03;20.27;46.28
68439;SHT31;55421;51.600;5.718;2023-05-29T11:17:32;20.37;46.20
68439;SHT31;55421;51.600;5.718;2023-05-29T11:25:26;20.29;44.88
68439;SHT31;55421;51.600;5.718;2023-05-29T11:27:54;20.23;45.68
68439;SHT31;55421;51.600;5.718;2023-05-29T11:30:21;20.27;45.87
68439;SHT31;55421;51.600;5.718;2023-05-29T11:32:48;20.29;45.87
68439;SHT31;55421;51.600;5.718;2023-05-29T11:35:19;20.36;45.92
68439;SHT31;55421;51.600;5.718;2023-05-29T11:37:48;20.42;45.94
68439;SHT31;55421;51.600;5.718;2023-05-29T11:40:16;20.47;45.64
68439;SHT31;55421;51.600;5.718;2023-05-29T11:42:44;20.44;45.11
68439;SHT31;55421;51.600;5.718;2023-05-29T11:45:17;20.39;45.68
68439;SHT31;55421;51.600;5.718;2023-05-29T11:47:57;20.43;45.90
68439;SHT31;55421;51.600;5.718;2023-05-29T11:50:27;20.50;45.49
68439;SHT31;55421;51.600;5.718;2023-05-29T11:52:57;20.55;44.99
68439;SHT31;55421;51.600;5.718;2023-05-29T11:55:25;20.58;45.31
68439;SHT31;55421;51.600;5.718;2023-05-29T11:57:57;20.67;45.20
68439;SHT31;55421;51.600;5.718;2023-05-29T12:00:25;20.77;45.20
68439;SHT31;55421;51.600;5.718;2023-05-29T12:02:57;20.81;44.31
68439;SHT31;55421;51.600;5.718;2023-05-29T12:05:43;20.71;43.51
68439;SHT31;55421;51.600;5.718;2023-05-29T12:08:12;20.54;43.69
68439;SHT31;55421;51.600;5.718;2023-05-29T12:10:46;20.55;44.28
68439;SHT31;55421;51.600;5.718;2023-05-29T12:13:14;20.56;44.27
68439;SHT31;55421;51.600;5.718;2023-05-29T12:15:45;20.64;44.84
68439;SHT31;55421;51.600;5.718;2023-05-29T12:18:15;20.76;44.68
68439;SHT31;55421;51.600;5.718;2023-05-29T12:20:41;20.87;44.50
68439;SHT31;55421;51.600;5.718;2023-05-29T12:23:08;20.91;44.11
68439;SHT31;55421;51.600;5.718;2023-05-29T12:25:35;20.89;43.89
68439;SHT31;55421;51.600;5.718;2023-05-29T12:28:04;20.91;43.88
68439;SHT31;55421;51.600;5.718;2023-05-29T12:30:36;20.95;43.71
68439;SHT31;55421;51.600;5.718;2023-05-29T12:33:04;20.91;43.34
68439;SHT31;55421;51.600;5.718;2023-05-29T12:35:32;20.85;43.59
68439;SHT31;55421;51.600;5.718;2023-05-29T12:38:00;20.85;43.20
68439;SHT31;55421;51.600;5.718;2023-05-29T12:40:31;20.82;43.11
68439;SHT31;55421;51.600;5.718;2023-05-29T12:43:00;20.81;43.04
68439;SHT31;55421;51.600;5.718;2023-05-29T12:45:37;20.72;42.70
68439;SHT31;55421;51.600;5.718;2023-05-29T12:48:04;20.58;42.77
68439;SHT31;55421;51.600;5.718;2023-05-29T12:50:34;20.51;43.26
68439;SHT31;55421;51.600;5.718;2023-05-29T12:53:04;20.52;43.19
68439;SHT31;55421;51.600;5.718;2023-05-29T12:55:37;20.53;43.05
68439;SHT31;55421;51.600;5.718;2023-05-29T12:58:06;20.56;42.86
68439;SHT31;55421;51.600;5.718;2023-05-29T13:00:35;20.58;43.18
68439;SHT31;55421;51.600;5.718;2023-05-29T13:03:04;20.60;43.30
68439;SHT31;55421;51.600;5.718;2023-05-29T13:05:32;20.63;43.09
68439;SHT31;55421;51.600;5.718;2023-05-29T13:08:00;20.56;43.06
68439;SHT31;55421;51.600;5.718;2023-05-29T13:10:27;20.50;43.13
68439;SHT31;55421;51.600;5.718;2023-05-29T13:12:54;20.49;43.32
68439;SHT31;55421;51.600;5.718;2023-05-29T13:15:22;20.53;42.85
68439;SHT31;55421;51.600;5.718;2023-05-29T13:17:49;20.55;42.56
68439;SHT31;55421;51.600;5.718;2023-05-29T13:20:16;20.52;41.57
68439;SHT31;55421;51.600;5.718;2023-05-29T13:22:44;20.45;41.70
68439;SHT31;55421;51.600;5.718;2023-05-29T13:25:13;20.43;41.44
68439;SHT31;55421;51.600;5.718;2023-05-29T13:27:43;20.37;41.63
68439;SHT31;55421;51.600;5.718;2023-05-29T13:30:12;20.35;41.76
68439;SHT31;55421;51.600;5.718;2023-05-29T13:32:40;20.42;41.52
68439;SHT31;55421;51.600;5.718;2023-05-29T13:35:08;20.47;41.36
68439;SHT31;55421;51.600;5.718;2023-05-29T13:37:35;20.50;41.77
68439;SHT31;55421;51.600;5.718;2023-05-29T13:40:04;20.60;41.26
68439;SHT31;55421;51.600;5.718;2023-05-29T13:42:32;20.69;40.69
68439;SHT31;55421;51.600;5.718;2023-05-29T13:44:59;20.75;40.86
68439;SHT31;55421;51.600;5.718;2023-05-29T13:47:25;20.81;41.00
68439;SHT31;55421;51.600;5.718;2023-05-29T13:49:54;20.86;40.87
68439;SHT31;55421;51.600;5.718;2023-05-29T13:52:21;20.89;40.31
68439;SHT31;55421;51.600;5.718;2023-05-29T13:54:47;20.88;39.73
68439;SHT31;55421;51.600;5.718;2023-05-29T13:57:14;20.84;39.39
68439;SHT31;55421;51.600;5.718;2023-05-29T13:59:40;20.83;39.62
68439;SHT31;55421;51.600;5.718;2023-05-29T14:02:07;20.85;40.21
68439;SHT31;55421;51.600;5.718;2023-05-29T14:04:34;20.89;40.17
68439;SHT31;55421;51.600;5.718;2023-05-29T14:07:01;20.88;40.08
68439;SHT31;55421;51.600;5.718;2023-05-29T14:09:27;20.86;40.17
68439;SHT31;55421;51.600;5.718;2023-05-29T14:11:55;20.87;40.06
68439;SHT31;55421;51.600;5.718;2023-05-29T14:14:24;20.89;40.03
68439;SHT31;55421;51.600;5.718;2023-05-29T14:16:52;20.95;39.83
68439;SHT31;55421;51.600;5.718;2023-05-29T14:19:23;20.98;39.27
68439;SHT31;55421;51.600;5.718;2023-05-29T14:21:50;20.95;38.87
68439;SHT31;55421;51.600;5.718;2023-05-29T14:24:17;20.86;39.10
68439;SHT31;55421;51.600;5.718;2023-05-29T14:26:44;20.82;39.16
68439;SHT31;55421;51.600;5.718;2023-05-29T14:29:13;20.82;39.53
68439;SHT31;55421;51.600;5.718;2023-05-29T14:31:41;20.83;39.49
68439;SHT31;55421;51.600;5.718;2023-05-29T14:34:09;20.80;39.14
68439;SHT31;55421;51.600;5.718;2023-05-29T14:36:39;20.77;39.45
68439;SHT31;55421;51.600;5.718;2023-05-29T14:39:07;20.78;39.61
68439;SHT31;55421;51.600;5.718;2023-05-29T14:41:33;20.75;39.08
68439;SHT31;55421;51.600;5.718;2023-05-29T14:44:01;20.68;38.66
68439;SHT31;55421;51.600;5.718;2023-05-29T14:46:28;20.66;38.71
68439;SHT31;55421;51.600;5.718;2023-05-29T14:48:58;20.64;38.30
68439;SHT31;55421;51.600;5.718;2023-05-29T14:51:25;20.58;38.01
68439;SHT31;55421;51.600;5.718;2023-05-29T14:53:53;20.57;37.58
68439;SHT31;55421;51.600;5.718;2023-05-29T14:56:20;20.58;37.74
68439;SHT31;55421;51.600;5.718;2023-05-29T14:58:46;20.60;37.77
68439;SHT31;55421;51.600;5.718;2023-05-29T15:01:16;20.60;37.28
68439;SHT31;55421;51.600;5.718;2023-05-29T15:03:43;20.53;36.55
68439;SHT31;55421;51.600;5.718;2023-05-29T15:06:10;20.44;37.19
68439;SHT31;55421;51.600;5.718;2023-05-29T15:08:38;20.39;37.53
68439;SHT31;55421;51.600;5.718;2023-05-29T15:11:08;20.40;38.04
68439;SHT31;55421;51.600;5.718;2023-05-29T15:13:35;20.45;38.31
68439;SHT31;55421;51.600;5.718;2023-05-29T15:16:02;20.45;38.11
68439;SHT31;55421;51.600;5.718;2023-05-29T15:18:29;20.41;39.04
68439;SHT31;55421;51.600;5.718;2023-05-29T15:20:56;20.42;39.24
68439;SHT31;55421;51.600;5.718;2023-05-29T15:23:24;20.42;39.67
68439;SHT31;55421;51.600;5.718;2023-05-29T15:25:52;20.44;39.71
68439;SHT31;55421;51.600;5.718;2023-05-29T15:28:19;20.42;39.35
68439;SHT31;55421;51.600;5.718;2023-05-29T15:30:46;20.39;39.13
68439;SHT31;55421;51.600;5.718;2023-05-29T15:33:13;20.36;38.98
68439;SHT31;55421;51.600;5.718;2023-05-29T15:35:40;20.30;38.83
68439;SHT31;55421;51.600;5.718;2023-05-29T15:38:08;20.26;39.04
68439;SHT31;55421;51.600;5.718;2023-05-29T15:40:36;20.24;38.94
68439;SHT31;55421;51.600;5.718;2023-05-29T15:43:02;20.23;39.18
68439;SHT31;55421;51.600;5.718;2023-05-29T15:45:29;20.21;39.04
68439;SHT31;55421;51.600;5.718;2023-05-29T15:47:56;20.18;39.02
68439;SHT31;55421;51.600;5.718;2023-05-29T15:50:23;20.16;38.73
68439;SHT31;55421;51.600;5.718;2023-05-29T15:52:49;20.10;39.10
68439;SHT31;55421;51.600;5.718;2023-05-29T15:55:16;20.04;39.22
68439;SHT31;55421;51.600;5.718;2023-05-29T15:57:43;20.00;39.24
68439;SHT31;55421;51.600;5.718;2023-05-29T16:00:11;19.93;39.12
68439;SHT31;55421;51.600;5.718;2023-05-29T16:02:39;19.88;39.42